Time;durP1;ratioP1;P1;durP2;ratioP2;P2;SDS_P1;SDS_P2;PMS_P1;PMS_P2;Temp;Humidity;BMP_temperature;BMP_pressure;BME280_temperature;BME280_humidity;BME280_pressure;Samples;Min_cycle;Max_cycle;Signal;HPM_P1;HPM_P2
2024/01/01 00:01:27;;;;;;;30.27;21.25;;;12.60;99.90;;;;;;5049907;28;20227;-77
2024/01/01 00:03:53;;;;;;;26.80;20.05;;;13.10;99.90;;;;;;5050545;28;20072;-73
2024/01/01 00:06:18;;;;;;;28.15;19.35;;;12.70;99.90;;;;;;5052322;28;20101;-78
2024/01/01 00:08:44;;;;;;;26.83;19.95;;;14.30;99.90;;;;;;5035053;28;20082;-71
2024/01/01 00:11:10;;;;;;;29.23;20.70;;;12.80;1.00;;;;;;5052283;28;20137;-77
2024/01/01 00:13:35;;;;;;;29.92;21.38;;;14.30;1.00;;;;;;5050178;28;20045;-73
2024/01/01 00:16:01;;;;;;;30.58;21.52;;;14.40;1.00;;;;;;5051710;28;20045;-75
2024/01/01 00:18:26;;;;;;;33.17;25.23;;;12.50;99.90;;;;;;5034798;28;20040;-73
2024/01/01 00:20:53;;;;;;;43.33;30.65;;;13.10;1.00;;;;;;5035023;28;20048;-74
2024/01/01 00:23:19;;;;;;;36.42;26.70;;;12.70;99.90;;;;;;5049956;28;20048;-73
2024/01/01 00:25:44;;;;;;;35.92;27.75;;;15.10;1.00;;;;;;5034627;28;20041;-79
2024/01/01 00:28:10;;;;;;;39.70;31.15;;;15.20;99.90;;;;;;5034787;28;20167;-76
2024/01/01 00:30:36;;;;;;;46.00;35.33;;;15.00;99.90;;;;;;5051385;28;20072;-77
2024/01/01 00:33:01;;;;;;;51.83;39.10;;;12.50;99.90;;;;;;5033999;28;20049;-74
2024/01/01 00:35:27;;;;;;;49.30;40.13;;;13.50;99.90;;;;;;5054466;28;20029;-78
2024/01/01 00:37:54;;;;;;;51.15;39.45;;;13.30;1.00;;;;;;5034051;28;20223;-78
2024/01/01 00:40:20;;;;;;;52.20;42.05;;;13.00;99.90;;;;;;5018257;28;20130;-77
2024/01/01 00:42:47;;;;;;;58.42;46.75;;;14.50;1.00;;;;;;5050548;28;20083;-78
2024/01/01 00:45:13;;;;;;;55.35;43.75;;;13.10;1.00;;;;;;5051190;28;20053;-79
2024/01/01 00:47:39;;;;;;;55.80;46.47;;;12.50;1.00;;;;;;5034288;28;20049;-74
2024/01/01 00:50:05;;;;;;;56.65;46.50;;;14.60;1.00;;;;;;5051235;28;20114;-76
2024/01/01 00:52:31;;;;;;;59.08;48.20;;;15.20;1.00;;;;;;5051485;28;20047;-76
2024/01/01 00:54:56;;;;;;;63.15;49.50;;;12.50;99.90;;;;;;5047466;28;20407;-72
2024/01/01 00:57:22;;;;;;;57.40;46.47;;;13.40;99.90;;;;;;5034164;28;20040;-77
2024/01/01 00:59:48;;;;;;;58.58;48.85;;;15.20;99.90;;;;;;5034700;28;20037;-77
2024/01/01 01:02:13;;;;;;;66.32;50.80;;;12.30;1.00;;;;;;5065059;28;20044;-76
2024/01/01 01:04:42;;;;;;;57.70;47.40;;;13.10;1.00;;;;;;5050180;28;20484;-71
2024/01/01 01:07:08;;;;;;;62.80;47.63;;;15.30;1.00;;;;;;5049968;28;20044;-74
2024/01/01 01:09:33;;;;;;;58.63;44.85;;;12.50;1.00;;;;;;5034368;28;20378;-75
2024/01/01 01:11:59;;;;;;;54.33;44.67;;;15.30;99.90;;;;;;5059165;28;20041;-75
2024/01/01 01:14:25;;;;;;;55.83;44.20;;;13.30;99.90;;;;;;5047908;28;20033;-78
2024/01/01 01:16:51;;;;;;;53.70;41.25;;;15.20;99.90;;;;;;5035663;28;20040;-76
2024/01/01 01:19:16;;;;;;;51.47;42.20;;;15.20;99.90;;;;;;5034215;28;20457;-78
2024/01/01 01:21:42;;;;;;;53.20;43.53;;;15.20;1.00;;;;;;5033804;28;20037;-73
2024/01/01 01:24:08;;;;;;;54.38;42.78;;;14.90;1.00;;;;;;5034122;28;20045;-76
2024/01/01 01:26:34;;;;;;;55.53;45.58;;;15.50;1.00;;;;;;5018069;28;20045;-75
2024/01/01 01:28:59;;;;;;;52.58;41.13;;;14.90;1.00;;;;;;5048535;28;20049;-76
2024/01/01 01:31:25;;;;;;;45.47;34.95;;;15.50;1.00;;;;;;5033773;28;20053;-72
2024/01/01 01:33:52;;;;;;;41.03;34.08;;;14.70;99.90;;;;;;5049385;28;20409;-75
2024/01/01 01:36:18;;;;;;;40.83;31.42;;;12.80;99.90;;;;;;5050429;28;20083;-73
2024/01/01 01:38:44;;;;;;;42.47;32.95;;;15.30;16.20;;;;;;5031413;28;20033;-73
2024/01/01 01:41:09;;;;;;;41.05;29.77;;;15.50;50.10;;;;;;5034396;28;20056;-72
2024/01/01 01:43:35;;;;;;;39.60;28.25;;;14.90;66.30;;;;;;5033362;28;20508;-76
2024/01/01 01:46:02;;;;;;;36.47;27.33;;;12.50;1.00;;;;;;5033935;28;20153;-69
2024/01/01 01:48:28;;;;;;;33.60;27.52;;;14.10;1.00;;;;;;5049148;28;20148;-71
2024/01/01 01:50:54;;;;;;;34.72;26.02;;;13.90;99.90;;;;;;5049900;28;20084;-71
2024/01/01 01:53:23;;;;;;;36.65;27.25;;;15.40;99.90;;;;;;5049766;28;20048;-73
2024/01/01 01:55:52;;;;;;;38.80;27.70;;;12.40;99.90;;;;;;5049932;28;20557;-70
2024/01/01 01:58:18;;;;;;;36.38;27.10;;;13.50;99.90;;;;;;5031075;28;20691;-72
2024/01/01 02:00:47;;;;;;;33.05;25.40;;;13.80;92.40;;;;;;5033008;28;20120;-73
2024/01/01 02:03:14;;;;;;;32.58;26.05;;;15.40;84.50;;;;;;5049969;28;20045;-71
2024/01/01 02:05:40;;;;;;;33.40;25.73;;;13.10;89.70;;;;;;5049616;28;20048;-71
2024/01/01 02:08:06;;;;;;;35.92;26.30;;;14.80;38.90;;;;;;5048493;28;20041;-73
2024/01/01 02:10:32;;;;;;;33.88;25.90;;;14.20;94.10;;;;;;5065294;28;20075;-76
2024/01/01 02:13:02;;;;;;;31.95;25.55;;;14.30;20.50;;;;;;5032885;28;20072;-71
2024/01/01 02:15:28;;;;;;;30.67;25.50;;;14.80;23.80;;;;;;5049411;28;20040;-71
2024/01/01 02:17:54;;;;;;;36.42;25.33;;;15.50;1.00;;;;;;5048822;28;20041;-73
2024/01/01 02:20:19;;;;;;;30.88;25.40;;;14.90;2.30;;;;;;5045775;28;20033;-76
2024/01/01 02:22:45;;;;;;;38.10;26.52;;;14.70;1.00;;;;;;5050333;28;20504;-76
2024/01/01 02:25:12;;;;;;;37.80;28.77;;;14.70;11.30;;;;;;5049686;28;20036;-75
2024/01/01 02:27:38;;;;;;;34.60;28.23;;;14.50;23.50;;;;;;5082519;28;20052;-72
2024/01/01 02:30:10;;;;;;;36.53;29.67;;;15.00;1.00;;;;;;5046546;28;20459;-70
2024/01/01 02:32:37;;;;;;;38.35;31.05;;;15.20;1.00;;;;;;5075074;28;20046;-73
2024/01/01 02:35:09;;;;;;;36.70;31.83;;;15.00;1.00;;;;;;5048986;28;20429;-71
2024/01/01 02:37:35;;;;;;;40.28;30.60;;;14.40;1.00;;;;;;5049822;28;20045;-72
2024/01/01 02:40:02;;;;;;;36.28;29.40;;;14.80;1.00;;;;;;5032073;28;20126;-72
2024/01/01 02:42:29;;;;;;;34.65;28.83;;;14.20;1.00;;;;;;5049737;28;20041;-74
2024/01/01 02:44:55;;;;;;;36.63;27.40;;;13.90;1.00;;;;;;5049110;28;20036;-74
2024/01/01 02:47:21;;;;;;;33.72;26.80;;;15.40;1.00;;;;;;5049637;28;20079;-76
2024/01/01 02:49:47;;;;;;;32.72;26.73;;;13.80;1.00;;;;;;5032419;28;20076;-75
2024/01/01 02:52:12;;;;;;;31.60;26.40;;;13.10;1.00;;;;;;5046675;28;20045;-74
2024/01/01 02:54:38;;;;;;;29.50;26.35;;;14.50;1.00;;;;;;5049205;28;20086;-73
2024/01/01 02:57:04;;;;;;;31.38;24.40;;;13.30;1.00;;;;;;5049769;28;20052;-75
2024/01/01 02:59:30;;;;;;;28.58;23.65;;;12.90;1.00;;;;;;5049363;28;20044;-75
2024/01/01 03:01:56;;;;;;;32.17;25.40;;;13.50;1.00;;;;;;5045627;28;20063;-72
2024/01/01 03:04:21;;;;;;;32.03;23.23;;;13.30;1.00;;;;;;5049306;28;20473;-77
2024/01/01 03:06:47;;;;;;;25.58;21.75;;;13.20;1.00;;;;;;5032808;28;20362;-75
2024/01/01 03:09:13;;;;;;;27.50;22.15;;;13.20;54.90;;;;;;5049529;28;20185;-73
2024/01/01 03:11:40;;;;;;;27.50;21.70;;;15.20;99.90;;;;;;5048166;28;20481;-81
2024/01/01 03:14:05;;;;;;;26.95;22.05;;;12.50;99.90;;;;;;5012446;28;20130;-74
2024/01/01 03:16:32;;;;;;;28.00;22.00;;;12.50;99.90;;;;;;5043433;28;20179;-77
2024/01/01 03:18:58;;;;;;;24.95;18.77;;;13.50;99.90;;;;;;5051896;28;20396;-77
2024/01/01 03:21:24;;;;;;;20.65;16.55;;;14.80;99.90;;;;;;5050138;28;20028;-75
2024/01/01 03:23:50;;;;;;;19.92;16.27;;;14.90;99.90;;;;;;5034867;28;20044;-76
2024/01/01 03:26:17;;;;;;;19.27;15.68;;;14.80;1.00;;;;;;5063650;28;20128;-76
2024/01/01 03:28:43;;;;;;;21.58;16.45;;;14.00;1.00;;;;;;5053524;28;20048;-75
2024/01/01 03:31:09;;;;;;;22.98;16.70;;;12.70;1.00;;;;;;5051264;28;20037;-75
2024/01/01 03:33:35;;;;;;;25.40;16.75;;;14.00;1.00;;;;;;5031320;28;20053;-77
2024/01/01 03:36:02;;;;;;;21.65;16.45;;;12.60;1.00;;;;;;5082393;28;20048;-73
2024/01/01 03:38:28;;;;;;;22.02;16.08;;;14.00;1.00;;;;;;5059282;28;20044;-75
2024/01/01 03:40:53;;;;;;;20.90;16.25;;;12.80;1.00;;;;;;5036550;28;20036;-76
2024/01/01 03:43:20;;;;;;;20.17;15.10;;;12.60;85.20;;;;;;5051778;28;20049;-75
2024/01/01 03:45:46;;;;;;;21.73;15.98;;;12.70;99.90;;;;;;5052554;28;20103;-73
2024/01/01 03:48:12;;;;;;;19.63;15.40;;;14.50;99.90;;;;;;5035847;28;20047;-78
2024/01/01 03:50:38;;;;;;;21.77;15.02;;;12.10;99.90;;;;;;5052814;28;20046;-78
2024/01/01 03:53:04;;;;;;;18.90;13.77;;;12.40;99.90;;;;;;5016578;28;20512;-79
2024/01/01 03:55:30;;;;;;;20.10;15.68;;;13.40;99.90;;;;;;5052802;28;20061;-75
2024/01/01 03:57:56;;;;;;;23.23;16.20;;;13.30;1.00;;;;;;5035737;28;20059;-76
2024/01/01 04:00:22;;;;;;;22.35;15.90;;;14.80;15.50;;;;;;5036285;28;20497;-76
2024/01/01 04:02:49;;;;;;;21.30;15.85;;;14.00;59.80;;;;;;5033474;28;20040;-74
2024/01/01 04:05:15;;;;;;;16.88;11.07;;;11.90;99.90;;;;;;5035660;28;20037;-77
2024/01/01 04:07:40;;;;;;;20.95;11.95;;;14.00;99.90;;;;;;5052243;28;20044;-79
2024/01/01 04:10:08;;;;;;;16.05;9.73;;;13.40;99.90;;;;;;5051834;28;20397;-76
2024/01/01 04:12:34;;;;;;;17.20;10.65;;;11.80;81.30;;;;;;5045635;28;20545;-75
2024/01/01 04:15:00;;;;;;;17.88;9.98;;;12.50;83.80;;;;;;5018780;28;20055;-74
2024/01/01 04:17:26;;;;;;;18.88;10.93;;;12.40;99.90;;;;;;5051822;28;20045;-78
2024/01/01 04:19:53;;;;;;;18.00;10.70;;;12.30;99.90;;;;;;5052076;28;20037;-78
2024/01/01 04:22:19;;;;;;;17.13;10.80;;;12.50;99.90;;;;;;5035098;28;20115;-75
2024/01/01 04:24:45;;;;;;;18.23;9.77;;;11.50;99.90;;;;;;5050771;28;20198;-76
2024/01/01 04:27:11;;;;;;;18.98;10.82;;;12.20;99.90;;;;;;5035548;28;20476;-77
2024/01/01 04:29:36;;;;;;;15.40;9.57;;;14.00;99.90;;;;;;5034627;28;20247;-76
2024/01/01 04:32:03;;;;;;;14.85;9.68;;;14.40;99.90;;;;;;5034990;28;20135;-74
2024/01/01 04:34:28;;;;;;;14.45;9.45;;;11.80;99.90;;;;;;5031786;28;20057;-75
2024/01/01 04:36:54;;;;;;;18.50;9.73;;;12.50;99.90;;;;;;5051342;28;20041;-75
2024/01/01 04:39:20;;;;;;;15.15;9.48;;;14.10;99.90;;;;;;5047868;28;20397;-76
2024/01/01 04:41:46;;;;;;;12.63;7.95;;;12.30;99.90;;;;;;5034911;28;20069;-76
2024/01/01 04:44:11;;;;;;;11.65;7.47;;;14.30;99.90;;;;;;5041350;28;20044;-76
2024/01/01 04:46:37;;;;;;;13.38;7.55;;;11.70;99.90;;;;;;5035062;28;20041;-76
2024/01/01 04:49:03;;;;;;;10.85;7.05;;;13.80;99.90;;;;;;5050460;28;20128;-74
2024/01/01 04:51:28;;;;;;;14.70;6.68;;;14.60;99.90;;;;;;5051397;28;20484;-75
2024/01/01 04:53:54;;;;;;;13.63;7.22;;;13.80;99.90;;;;;;5050629;28;20041;-75
2024/01/01 04:56:23;;;;;;;14.10;7.05;;;12.30;99.90;;;;;;5049577;28;20449;-76
2024/01/01 04:58:50;;;;;;;14.00;6.82;;;14.50;99.90;;;;;;5034558;28;20044;-77
2024/01/01 05:01:16;;;;;;;11.10;6.28;;;12.30;99.90;;;;;;5034501;28;20446;-74
2024/01/01 05:03:42;;;;;;;11.38;6.13;;;14.70;99.90;;;;;;5051092;28;20118;-77
2024/01/01 05:06:07;;;;;;;12.50;5.85;;;12.00;99.90;;;;;;4999923;28;20043;-79
2024/01/01 05:08:33;;;;;;;13.25;5.82;;;14.10;99.90;;;;;;5051029;28;20080;-73
2024/01/01 05:11:03;;;;;;;13.13;6.20;;;12.40;99.90;;;;;;5059728;28;20424;-72
2024/01/01 05:13:29;;;;;;;15.63;6.72;;;14.80;99.90;;;;;;5069177;28;20075;-76
2024/01/01 05:15:54;;;;;;;11.57;6.10;;;14.80;99.90;;;;;;5033234;28;20100;-76
2024/01/01 05:18:20;;;;;;;10.68;5.38;;;14.90;99.90;;;;;;5050192;28;20103;-74
2024/01/01 05:20:45;;;;;;;11.43;5.70;;;13.10;99.90;;;;;;5050227;28;20100;-78
2024/01/01 05:23:11;;;;;;;13.40;5.38;;;14.80;99.90;;;;;;5048258;28;20468;-76
2024/01/01 05:25:37;;;;;;;12.10;5.20;;;12.30;99.90;;;;;;5031631;28;20037;-73
2024/01/01 05:28:05;;;;;;;10.27;5.10;;;13.10;99.90;;;;;;5050821;28;20059;-77
2024/01/01 05:30:31;;;;;;;10.30;4.63;;;11.90;99.90;;;;;;5050553;28;20045;-75
2024/01/01 05:32:57;;;;;;;12.98;5.00;;;13.50;99.90;;;;;;5050462;28;20049;-79
2024/01/01 05:35:22;;;;;;;13.73;4.75;;;12.60;99.90;;;;;;5032190;28;20108;-76
2024/01/01 05:37:48;;;;;;;9.07;4.43;;;14.20;99.90;;;;;;5050992;28;20041;-80
2024/01/01 05:40:14;;;;;;;12.52;4.80;;;11.80;99.90;;;;;;5033023;28;20033;-76
2024/01/01 05:42:39;;;;;;;10.32;4.88;;;11.90;99.90;;;;;;5014009;28;20474;-78
2024/01/01 05:45:06;;;;;;;11.23;4.57;;;13.20;99.90;;;;;;5021561;28;20035;-75
2024/01/01 05:47:32;;;;;;;13.82;4.72;;;11.70;99.90;;;;;;5031543;28;20041;-77
2024/01/01 05:49:57;;;;;;;11.80;4.45;;;13.40;99.90;;;;;;5047714;28;20462;-76
2024/01/01 05:52:23;;;;;;;10.25;4.05;;;11.40;99.90;;;;;;5016840;28;20492;-74
2024/01/01 05:54:49;;;;;;;11.20;4.55;;;11.70;99.90;;;;;;5032995;28;20059;-76
2024/01/01 05:57:15;;;;;;;10.23;4.05;;;13.00;99.90;;;;;;5049879;28;20040;-77
2024/01/01 05:59:40;;;;;;;10.75;4.90;;;14.10;99.90;;;;;;5063225;28;20043;-77
2024/01/01 06:02:07;;;;;;;12.40;4.90;;;12.30;99.90;;;;;;5049310;28;20068;-76
2024/01/01 06:04:33;;;;;;;10.88;4.47;;;13.00;99.90;;;;;;5065062;28;20095;-76
2024/01/01 06:06:59;;;;;;;10.65;5.10;;;13.50;99.90;;;;;;5051587;28;20041;-73
2024/01/01 06:09:25;;;;;;;9.90;4.82;;;15.20;99.90;;;;;;5022209;28;20076;-75
2024/01/01 06:11:50;;;;;;;12.80;5.30;;;14.40;99.90;;;;;;5016895;28;20052;-75
2024/01/01 06:14:16;;;;;;;12.07;5.20;;;15.20;99.90;;;;;;5032911;28;20091;-71
2024/01/01 06:16:44;;;;;;;13.65;5.15;;;14.10;99.90;;;;;;5032040;28;20094;-73
2024/01/01 06:19:11;;;;;;;12.07;5.35;;;13.40;99.90;;;;;;5049470;28;20033;-77
2024/01/01 06:21:37;;;;;;;11.73;5.32;;;11.60;99.90;;;;;;5049641;28;20041;-78
2024/01/01 06:24:03;;;;;;;14.95;5.25;;;12.90;99.90;;;;;;5065329;28;20056;-77
2024/01/01 06:26:28;;;;;;;11.70;4.85;;;15.40;99.90;;;;;;5063957;28;20040;-76
2024/01/01 06:28:54;;;;;;;10.88;4.95;;;11.70;99.90;;;;;;5050152;28;20169;-75
2024/01/01 06:31:19;;;;;;;12.02;5.65;;;12.60;99.90;;;;;;5062051;28;20122;-77
2024/01/01 06:33:45;;;;;;;10.13;5.07;;;13.00;99.90;;;;;;5049412;28;20059;-73
2024/01/01 06:36:11;;;;;;;12.82;4.82;;;12.50;99.90;;;;;;5031544;28;20126;-76
2024/01/01 06:38:37;;;;;;;12.65;5.28;;;11.80;99.90;;;;;;5049361;28;20056;-73
2024/01/01 06:41:03;;;;;;;12.07;4.50;;;15.20;99.90;;;;;;5033525;28;20052;-75
2024/01/01 06:43:29;;;;;;;9.13;3.40;;;15.40;99.90;;;;;;5046905;28;20044;-74
2024/01/01 06:45:54;;;;;;;10.93;3.83;;;13.60;99.90;;;;;;5032968;28;20041;-77
2024/01/01 06:48:20;;;;;;;11.68;4.03;;;15.50;99.90;;;;;;5048015;28;20048;-76
2024/01/01 06:50:46;;;;;;;10.38;3.58;;;15.50;99.90;;;;;;5050468;28;20469;-77
2024/01/01 06:53:12;;;;;;;12.10;4.72;;;15.10;99.90;;;;;;5035679;28;20267;-74
2024/01/01 06:55:37;;;;;;;75.68;68.15;;;12.70;99.90;;;;;;5053950;28;20053;-75
2024/01/01 06:58:03;;;;;;;14.20;5.68;;;15.50;99.90;;;;;;5036710;28;20052;-73
2024/01/01 07:00:29;;;;;;;13.57;5.35;;;12.20;99.90;;;;;;5036857;28;20048;-72
2024/01/01 07:02:55;;;;;;;14.02;6.10;;;11.60;99.90;;;;;;5053381;28;20115;-76
2024/01/01 07:05:21;;;;;;;12.57;5.15;;;13.20;99.90;;;;;;5052864;28;20040;-74
2024/01/01 07:07:47;;;;;;;14.93;5.78;;;13.30;99.90;;;;;;5057163;28;20115;-76
2024/01/01 07:10:13;;;;;;;10.32;4.90;;;11.80;99.90;;;;;;5069186;28;20495;-74
2024/01/01 07:12:39;;;;;;;11.07;4.75;;;15.60;99.90;;;;;;5053315;28;20048;-73
2024/01/01 07:15:05;;;;;;;10.00;4.00;;;14.30;99.90;;;;;;5053616;28;20044;-77
2024/01/01 07:17:31;;;;;;;10.55;3.90;;;15.00;99.90;;;;;;5049937;28;20040;-75
2024/01/01 07:19:58;;;;;;;13.98;4.63;;;12.50;99.90;;;;;;5053559;28;20045;-74
2024/01/01 07:22:23;;;;;;;11.82;4.70;;;13.80;99.90;;;;;;5021558;28;20045;-72
2024/01/01 07:24:49;;;;;;;11.10;4.38;;;13.90;99.90;;;;;;5051362;28;20065;-72
2024/01/01 07:27:15;;;;;;;11.00;4.40;;;12.40;99.90;;;;;;5051417;28;20500;-73
2024/01/01 07:29:41;;;;;;;11.73;4.50;;;12.10;99.90;;;;;;5053149;28;20053;-71
2024/01/01 07:32:07;;;;;;;11.82;4.65;;;12.50;99.90;;;;;;5047376;28;20055;-71
2024/01/01 07:34:32;;;;;;;11.15;4.53;;;15.50;99.90;;;;;;5050038;28;20128;-71
2024/01/01 07:36:58;;;;;;;12.38;4.80;;;11.60;99.90;;;;;;5044805;28;20041;-78
2024/01/01 07:39:25;;;;;;;12.63;5.10;;;15.60;99.90;;;;;;5006545;28;20057;-76
2024/01/01 07:41:51;;;;;;;10.27;4.45;;;15.60;99.90;;;;;;5051053;28;20041;-76
2024/01/01 07:44:17;;;;;;;12.80;4.78;;;14.90;99.90;;;;;;5039265;28;20133;-73
2024/01/01 07:46:43;;;;;;;13.15;4.97;;;11.90;99.90;;;;;;5051783;28;20175;-77
2024/01/01 07:49:09;;;;;;;8.18;3.20;;;15.20;99.90;;;;;;5035437;28;20053;-75
2024/01/01 07:51:35;;;;;;;5.45;2.33;;;12.00;99.90;;;;;;5035904;28;20041;-73
2024/01/01 07:54:01;;;;;;;4.43;2.10;;;14.20;99.90;;;;;;5052374;28;20055;-75
2024/01/01 07:56:28;;;;;;;6.25;2.22;;;12.70;99.90;;;;;;5034667;28;20033;-76
2024/01/01 07:58:54;;;;;;;5.72;2.10;;;14.30;99.90;;;;;;5051615;28;20033;-75
2024/01/01 08:01:20;;;;;;;2.78;1.40;;;11.40;99.90;;;;;;5051958;28;20037;-79
2024/01/01 08:03:46;;;;;;;4.20;1.40;;;13.70;99.90;;;;;;5051948;28;20055;-75
2024/01/01 08:06:12;;;;;;;5.90;1.30;;;11.50;99.90;;;;;;5052056;28;20045;-77
2024/01/01 08:08:38;;;;;;;4.07;1.00;;;13.10;99.90;;;;;;5034368;28;20052;-77
2024/01/01 08:11:04;;;;;;;4.28;1.23;;;11.50;99.90;;;;;;5052509;28;20040;-81
2024/01/01 08:13:29;;;;;;;4.50;1.52;;;12.00;99.90;;;;;;5035455;28;20040;-79
2024/01/01 08:15:55;;;;;;;3.30;1.20;;;13.90;99.90;;;;;;5035226;28;20044;-75
2024/01/01 08:18:21;;;;;;;4.85;1.20;;;11.30;99.90;;;;;;5034708;28;20120;-76
2024/01/01 08:20:47;;;;;;;4.28;1.60;;;13.30;99.90;;;;;;5035170;28;20037;-78
2024/01/01 08:23:12;;;;;;;4.55;1.60;;;13.30;99.90;;;;;;5052164;28;20523;-73
2024/01/01 08:25:39;;;;;;;5.22;1.75;;;11.60;99.90;;;;;;5052457;28;20051;-78
2024/01/01 08:28:05;;;;;;;4.53;1.60;;;14.40;99.90;;;;;;5049481;28;20040;-77
2024/01/01 08:30:31;;;;;;;4.97;2.00;;;12.40;99.90;;;;;;5055733;28;20459;-74
2024/01/01 08:32:58;;;;;;;4.88;1.67;;;11.50;99.90;;;;;;5052590;28;20049;-76
2024/01/01 08:35:23;;;;;;;5.88;2.50;;;12.10;99.90;;;;;;5070626;28;20107;-74
2024/01/01 08:37:49;;;;;;;5.25;2.53;;;13.80;99.90;;;;;;5051031;28;20041;-74
2024/01/01 08:40:15;;;;;;;6.28;2.45;;;14.50;99.90;;;;;;5026771;28;20524;-76
2024/01/01 08:42:41;;;;;;;7.55;3.13;;;12.30;99.90;;;;;;5053646;28;20961;-75
2024/01/01 08:45:07;;;;;;;7.65;2.70;;;13.40;99.90;;;;;;5053300;28;20033;-78
2024/01/01 08:47:33;;;;;;;9.32;2.63;;;14.00;99.90;;;;;;5051695;28;20118;-75
2024/01/01 08:49:59;;;;;;;9.23;2.80;;;12.20;99.90;;;;;;5059604;28;20116;-80
2024/01/01 08:52:25;;;;;;;10.35;3.25;;;12.80;99.90;;;;;;5034321;28;20033;-78
2024/01/01 08:54:50;;;;;;;8.02;2.90;;;12.00;99.90;;;;;;5035098;28;20037;-78
2024/01/01 08:57:16;;;;;;;8.68;2.85;;;14.60;99.90;;;;;;5035250;28;20041;-77
2024/01/01 08:59:42;;;;;;;9.20;2.55;;;14.40;99.90;;;;;;5050124;28;20055;-77
2024/01/01 09:02:09;;;;;;;8.02;2.53;;;14.40;99.90;;;;;;5035090;28;20186;-82
2024/01/01 09:04:34;;;;;;;7.47;2.72;;;11.90;99.90;;;;;;5047715;28;20397;-81
2024/01/01 09:07:02;;;;;;;7.45;2.70;;;14.10;99.90;;;;;;5051036;28;20052;-81
2024/01/01 09:09:28;;;;;;;7.57;2.67;;;12.90;99.90;;;;;;5083714;28;20041;-80
2024/01/01 09:11:54;;;;;;;10.68;2.90;;;14.10;99.90;;;;;;5034465;28;20870;-79
2024/01/01 09:14:19;;;;;;;6.40;2.60;;;13.00;99.90;;;;;;5051327;28;20037;-78
2024/01/01 09:16:46;;;;;;;10.13;3.45;;;13.20;99.90;;;;;;5050218;28;20044;-74
2024/01/01 09:19:11;;;;;;;8.52;3.30;;;12.40;99.90;;;;;;5063230;28;20049;-77
2024/01/01 09:21:38;;;;;;;5.43;2.33;;;11.70;99.90;;;;;;5082812;28;20033;-79
2024/01/01 09:24:05;;;;;;;5.30;2.15;;;14.00;99.90;;;;;;5061138;28;20124;-77
2024/01/01 09:26:31;;;;;;;8.27;2.67;;;14.90;99.90;;;;;;5050865;28;20413;-77
2024/01/01 09:28:57;;;;;;;7.15;1.75;;;12.00;99.90;;;;;;5051221;28;20056;-79
2024/01/01 09:31:23;;;;;;;2.83;1.50;;;14.30;99.90;;;;;;5059172;28;20884;-77
2024/01/01 09:33:48;;;;;;;2.60;1.40;;;13.30;99.90;;;;;;5048070;28;20067;-78
2024/01/01 09:36:14;;;;;;;3.33;1.40;;;12.50;99.90;;;;;;5049882;28;20044;-80
2024/01/01 09:38:41;;;;;;;4.90;1.75;;;14.60;99.90;;;;;;5050432;28;20044;-77
2024/01/01 09:41:12;;;;;;;4.32;1.98;;;14.00;99.90;;;;;;5050479;28;20508;-79
2024/01/01 09:43:39;;;;;;;6.28;2.35;;;11.70;99.90;;;;;;5032779;28;20052;-77
2024/01/01 09:46:05;;;;;;;6.25;2.78;;;13.80;99.90;;;;;;5056454;28;20401;-79
2024/01/01 09:48:31;;;;;;;6.03;1.92;;;11.40;99.90;;;;;;5044362;28;20037;-78
2024/01/01 09:50:57;;;;;;;5.32;2.35;;;13.00;99.90;;;;;;5047910;28;20124;-80
2024/01/01 09:53:23;;;;;;;4.40;1.63;;;14.10;99.90;;;;;;5033575;28;20048;-78
2024/01/01 09:55:55;;;;;;;9.30;2.22;;;12.00;99.90;;;;;;5084232;28;20049;-80
2024/01/01 09:58:21;;;;;;;4.65;1.70;;;11.30;99.90;;;;;;5009960;28;20040;-78
2024/01/01 10:00:48;;;;;;;4.43;1.75;;;14.10;99.90;;;;;;5015390;28;20041;-80
2024/01/01 10:03:14;;;;;;;5.15;1.88;;;14.80;99.90;;;;;;5051532;28;20111;-77
2024/01/01 10:05:40;;;;;;;5.22;2.05;;;14.90;99.90;;;;;;5050533;28;20505;-81
2024/01/01 10:08:11;;;;;;;6.82;1.80;;;11.60;99.90;;;;;;5048211;28;20037;-78
2024/01/01 10:10:41;;;;;;;6.53;2.20;;;12.10;99.90;;;;;;5033639;28;20051;-80
2024/01/01 10:13:12;;;;;;;3.80;1.73;;;15.10;99.90;;;;;;5034484;28;20049;-76
2024/01/01 10:15:39;;;;;;;6.13;2.45;;;11.50;99.90;;;;;;5049753;28;20049;-76
2024/01/01 10:18:12;;;;;;;5.78;1.80;;;14.10;99.90;;;;;;5082886;28;20037;-83
2024/01/01 10:20:43;;;;;;;4.30;1.90;;;12.20;99.90;;;;;;5028348;28;20679;-77
2024/01/01 10:23:20;;;;;;;5.60;2.03;;;14.70;99.90;;;;;;5048429;28;20431;-79
2024/01/01 10:26:02;;;;;;;5.47;2.10;;;14.30;99.90;;;;;;5037387;28;20048;-80
2024/01/01 10:28:29;;;;;;;7.13;2.30;;;14.30;99.90;;;;;;5042344;28;20094;-80
2024/01/01 10:30:55;;;;;;;7.68;2.28;;;15.10;99.90;;;;;;5037349;28;20052;-77
2024/01/01 10:33:22;;;;;;;8.20;2.38;;;12.10;99.90;;;;;;5040052;28;20044;-79
2024/01/01 10:35:48;;;;;;;12.23;2.65;;;14.80;99.90;;;;;;5016854;28;20102;-77
2024/01/01 10:38:17;;;;;;;11.45;3.10;;;12.10;99.90;;;;;;5038939;28;20544;-80
2024/01/01 10:40:46;;;;;;;9.32;2.90;;;15.50;99.90;;;;;;5046466;28;20045;-79
2024/01/01 10:43:12;;;;;;;10.10;2.78;;;13.00;99.90;;;;;;5041877;28;20099;-78
2024/01/01 10:45:39;;;;;;;10.32;2.72;;;12.10;99.90;;;;;;5031751;28;20738;-76
2024/01/01 10:48:07;;;;;;;11.70;3.00;;;12.60;99.90;;;;;;5033504;28;20048;-77
2024/01/01 10:50:39;;;;;;;11.32;2.63;;;12.90;99.90;;;;;;5008605;28;20370;-74
2024/01/01 10:53:11;;;;;;;11.35;3.00;;;15.80;99.90;;;;;;5047012;28;20087;-77
2024/01/01 10:56:07;;;;;;;12.98;3.33;;;13.10;99.90;;;;;;5047886;28;20044;-79
2024/01/01 10:59:02;;;;;;;12.25;3.10;;;14.90;99.90;;;;;;5026950;28;20040;-82
2024/01/01 11:01:29;;;;;;;11.50;3.20;;;13.10;99.90;;;;;;5045166;28;20496;-81
2024/01/01 11:03:55;;;;;;;14.73;3.45;;;13.00;99.90;;;;;;5016456;28;20485;-83
2024/01/01 11:06:31;;;;;;;10.60;3.40;;;14.50;99.90;;;;;;5061169;28;20045;-83
2024/01/01 11:09:17;;;;;;;11.27;3.53;;;13.40;99.90;;;;;;5039332;28;20037;-82
2024/01/01 11:11:51;;;;;;;14.73;3.42;;;12.30;75.80;;;;;;5031941;28;20044;-80
2024/01/01 11:14:24;;;;;;;12.95;3.78;;;13.60;25.40;;;;;;5045621;28;20393;-82
2024/01/01 11:16:52;;;;;;;15.35;3.25;;;12.30;99.90;;;;;;5037282;28;20119;-83
2024/01/01 11:19:36;;;;;;;12.65;3.35;;;13.20;99.90;;;;;;5056700;28;20036;-83
2024/01/01 11:22:29;;;;;;;12.15;3.50;;;13.60;77.30;;;;;;5053697;28;20489;-82
2024/01/01 11:24:56;;;;;;;10.82;2.90;;;16.10;97.60;;;;;;5024490;28;20428;-80
2024/01/01 11:27:44;;;;;;;14.30;3.38;;;16.10;99.90;;;;;;5042939;28;20047;-80
2024/01/01 11:30:11;;;;;;;14.85;3.58;;;15.60;99.90;;;;;;5042584;28;20083;-85
2024/01/01 11:32:37;;;;;;;13.00;3.75;;;13.20;1.00;;;;;;5026555;28;20375;-84
2024/01/01 11:35:07;;;;;;;12.43;3.10;;;15.00;68.10;;;;;;5045603;28;20049;-84
2024/01/01 11:37:34;;;;;;;13.70;3.10;;;14.00;1.00;;;;;;5050213;28;20460;-82
2024/01/01 11:40:02;;;;;;;14.40;3.35;;;14.90;91.50;;;;;;5001608;28;20056;-78
2024/01/01 11:42:28;;;;;;;14.30;2.95;;;16.00;99.90;;;;;;5033777;28;20029;-81
2024/01/01 11:45:11;;;;;;;11.15;3.05;;;13.80;99.90;;;;;;5030489;28;20037;-77
2024/01/01 11:47:38;;;;;;;9.60;2.92;;;14.70;13.10;;;;;;5050497;28;20072;-74
2024/01/01 11:50:05;;;;;;;9.50;2.70;;;14.20;10.40;;;;;;5033895;28;20071;-77
2024/01/01 11:52:31;;;;;;;14.90;3.42;;;12.10;11.80;;;;;;5051428;28;20037;-78
2024/01/01 11:54:57;;;;;;;12.52;3.20;;;15.10;45.70;;;;;;5058502;28;20094;-76
2024/01/01 11:57:23;;;;;;;7.97;3.10;;;12.40;99.90;;;;;;5031158;28;20075;-79
2024/01/01 11:59:49;;;;;;;11.52;3.05;;;14.10;99.90;;;;;;5033354;28;20132;-77
2024/01/01 12:02:17;;;;;;;9.88;2.47;;;14.10;99.90;;;;;;5031027;28;20563;-75
2024/01/01 12:04:49;;;;;;;8.25;2.67;;;14.50;99.90;;;;;;5034220;28;20527;-78
2024/01/01 12:07:31;;;;;;;12.75;3.55;;;14.90;1.00;;;;;;5032789;28;20041;-77
2024/01/01 12:10:07;;;;;;;10.00;3.13;;;12.60;39.60;;;;;;5050343;28;20043;-77
2024/01/01 12:12:38;;;;;;;16.70;3.97;;;12.60;99.90;;;;;;5031380;28;20044;-78
2024/01/01 12:15:15;;;;;;;13.38;3.40;;;12.20;99.90;;;;;;5032995;28;20041;-81
2024/01/01 12:17:42;;;;;;;14.40;3.75;;;14.90;99.90;;;;;;5034254;28;20037;-78
2024/01/01 12:20:12;;;;;;;16.27;3.80;;;14.20;99.90;;;;;;5035411;28;20397;-77
2024/01/01 12:22:38;;;;;;;19.10;4.13;;;15.20;99.90;;;;;;5035119;28;20385;-76
2024/01/01 12:25:05;;;;;;;14.15;3.13;;;13.60;99.90;;;;;;5032604;28;20037;-76
2024/01/01 12:27:31;;;;;;;21.95;4.55;;;12.70;99.90;;;;;;5031926;28;20048;-78
2024/01/01 12:29:57;;;;;;;15.82;3.47;;;16.00;99.90;;;;;;5034780;28;20033;-76
2024/01/01 12:32:26;;;;;;;17.95;3.83;;;13.50;90.70;;;;;;5050781;28;20469;-78
2024/01/01 12:34:52;;;;;;;13.93;3.15;;;15.20;99.90;;;;;;5048403;28;20132;-77
2024/01/01 12:37:20;;;;;;;15.52;3.33;;;16.10;1.00;;;;;;5049884;28;20128;-75